createdAt,value
2023-05-04T00:00:01.787Z,14.27
2023-05-04T00:02:32.500Z,13.60
2023-05-04T00:05:00.068Z,13.13
2023-05-04T00:07:27.500Z,13.17
2023-05-04T00:09:54.922Z,14.67
2023-05-04T00:12:22.543Z,12.27
2023-05-04T00:14:49.850Z,12.93
2023-05-04T00:17:17.573Z,13.87
2023-05-04T00:19:46.188Z,13.37
2023-05-04T00:22:13.726Z,12.17
2023-05-04T00:24:41.414Z,15.30
2023-05-04T00:27:10.217Z,13.47
2023-05-04T00:29:37.681Z,13.13
2023-05-04T00:32:05.815Z,14.40
2023-05-04T00:34:35.904Z,12.23
2023-05-04T00:37:03.371Z,12.73
2023-05-04T00:39:31.136Z,12.70
2023-05-04T00:41:58.577Z,12.17
2023-05-04T00:44:25.980Z,11.50
2023-05-04T00:46:53.634Z,10.97
2023-05-04T00:49:21.736Z,9.80
2023-05-04T00:51:50.317Z,9.93
2023-05-04T00:54:20.602Z,9.00
2023-05-04T00:56:48.191Z,9.57
2023-05-04T00:59:15.809Z,8.40
2023-05-04T01:01:43.221Z,8.40
2023-05-04T01:04:11.003Z,8.50
2023-05-04T01:06:44.291Z,9.00
2023-05-04T01:09:25.945Z,8.80
2023-05-04T01:12:28.994Z,8.17
2023-05-04T01:14:57.829Z,10.13
2023-05-04T01:17:25.745Z,10.17
2023-05-04T01:19:54.137Z,8.63
2023-05-04T01:22:22.030Z,8.30
2023-05-04T01:24:51.004Z,8.63
2023-05-04T01:27:40.590Z,8.57
2023-05-04T01:30:25.560Z,8.97
2023-05-04T01:32:53.679Z,9.67
2023-05-04T01:35:21.082Z,8.60
2023-05-04T01:37:48.831Z,8.33
2023-05-04T01:40:16.525Z,11.33
2023-05-04T01:42:43.826Z,9.30
2023-05-04T01:45:12.686Z,9.43
2023-05-04T01:47:39.997Z,9.40
2023-05-04T01:50:08.080Z,9.97
2023-05-04T01:52:35.548Z,9.97
2023-05-04T01:55:02.991Z,13.40
2023-05-04T01:57:30.967Z,9.70
2023-05-04T01:59:58.400Z,10.03
2023-05-04T02:02:25.984Z,11.10
2023-05-04T02:04:53.848Z,10.77
2023-05-04T02:07:21.291Z,10.70
2023-05-04T02:09:48.582Z,11.80
2023-05-04T02:12:16.025Z,12.27
2023-05-04T02:14:43.336Z,13.97
2023-05-04T02:17:10.742Z,12.20
2023-05-04T02:19:38.396Z,10.27
2023-05-04T02:22:06.065Z,10.37
2023-05-04T02:24:34.468Z,11.07
2023-05-04T02:27:02.115Z,10.70
2023-05-04T02:29:29.728Z,11.17
2023-05-04T02:31:57.066Z,13.17
2023-05-04T02:34:24.427Z,13.57
2023-05-04T02:36:51.816Z,11.73
2023-05-04T02:39:19.241Z,11.00
2023-05-04T02:41:46.893Z,12.87
2023-05-04T02:44:14.574Z,11.63
2023-05-04T02:46:42.545Z,12.10
2023-05-04T02:49:10.026Z,11.93
2023-05-04T02:51:37.777Z,12.07
2023-05-04T02:54:05.250Z,11.10
2023-05-04T02:56:32.495Z,10.33
2023-05-04T02:59:00.217Z,15.23
2023-05-04T03:01:27.649Z,11.60
2023-05-04T03:03:55.187Z,11.20
2023-05-04T03:06:22.550Z,11.07
2023-05-04T03:08:50.220Z,11.33
2023-05-04T03:11:17.666Z,11.80
2023-05-04T03:13:44.929Z,11.10
2023-05-04T03:16:12.316Z,10.83
2023-05-04T03:21:25.093Z,10.80
2023-05-04T03:23:52.712Z,10.67
2023-05-04T03:26:20.098Z,10.17
2023-05-04T03:28:47.988Z,10.97
2023-05-04T03:31:15.505Z,11.17
2023-05-04T03:33:43.863Z,10.07
2023-05-04T03:36:11.632Z,9.33
2023-05-04T03:38:42.259Z,10.30
2023-05-04T03:41:11.213Z,10.43
2023-05-04T03:43:40.032Z,12.33
2023-05-04T03:46:07.555Z,12.70
2023-05-04T03:48:35.000Z,10.10
2023-05-04T03:51:02.560Z,9.50
2023-05-04T03:53:29.975Z,10.33
2023-05-04T03:55:57.258Z,9.20
2023-05-04T03:58:25.293Z,13.60
2023-05-04T04:00:53.618Z,10.13
2023-05-04T04:03:21.589Z,8.63
2023-05-04T04:05:49.335Z,8.80
2023-05-04T04:08:16.849Z,9.63
2023-05-04T04:10:44.410Z,9.73
2023-05-04T04:13:12.145Z,9.00
2023-05-04T04:15:41.619Z,9.60
2023-05-04T04:18:10.338Z,8.17
2023-05-04T04:20:37.846Z,8.40
2023-05-04T04:23:06.115Z,9.47
2023-05-04T04:25:33.529Z,8.67
2023-05-04T04:28:00.921Z,8.23
2023-05-04T04:30:28.452Z,10.73
2023-05-04T04:32:57.200Z,8.57
2023-05-04T04:35:24.501Z,9.77
2023-05-04T04:37:52.264Z,9.40
2023-05-04T04:40:19.511Z,9.90
2023-05-04T04:42:47.205Z,9.43
2023-05-04T04:45:15.472Z,13.30
2023-05-04T04:47:42.997Z,12.20
2023-05-04T04:50:11.359Z,7.33
2023-05-04T04:52:41.232Z,8.07
2023-05-04T04:55:09.220Z,9.37
2023-05-04T04:57:36.573Z,9.17
2023-05-04T05:00:09.282Z,7.13
2023-05-04T05:02:36.997Z,8.13
2023-05-04T05:05:04.885Z,8.30
2023-05-04T05:07:32.875Z,7.77
2023-05-04T05:10:00.317Z,7.20
2023-05-04T05:12:27.899Z,8.77
2023-05-04T05:14:55.337Z,8.47
2023-05-04T05:17:23.067Z,6.60
2023-05-04T05:19:50.703Z,9.27
2023-05-04T05:22:18.142Z,9.67
2023-05-04T05:24:45.417Z,7.27
2023-05-04T05:27:13.213Z,8.77
2023-05-04T05:29:40.893Z,7.27
2023-05-04T05:32:08.347Z,9.80
2023-05-04T05:34:39.011Z,7.37
2023-05-04T05:37:06.389Z,7.60
2023-05-04T05:39:34.284Z,8.07
2023-05-04T05:42:01.897Z,7.03
2023-05-04T05:44:29.444Z,9.37
2023-05-04T05:46:56.856Z,8.90
2023-05-04T05:49:24.168Z,7.27
2023-05-04T05:51:51.657Z,6.90
2023-05-04T05:54:19.622Z,6.97
2023-05-04T05:56:46.854Z,7.00
2023-05-04T05:59:15.776Z,6.90
2023-05-04T06:01:43.475Z,8.17
2023-05-04T06:04:10.903Z,6.63
2023-05-04T06:06:38.607Z,6.63
2023-05-04T06:09:06.094Z,7.00
2023-05-04T06:11:33.771Z,8.53
2023-05-04T06:14:01.275Z,6.63
2023-05-04T06:16:28.606Z,10.17
2023-05-04T06:18:55.890Z,6.80
2023-05-04T06:21:23.297Z,7.13
2023-05-04T06:23:50.914Z,6.33
2023-05-04T06:26:20.411Z,8.40
2023-05-04T06:28:48.175Z,6.60
2023-05-04T06:31:15.591Z,9.53
2023-05-04T06:33:43.094Z,7.80
2023-05-04T06:36:11.587Z,7.53
2023-05-04T06:38:39.403Z,6.57
2023-05-04T06:41:07.121Z,8.07
2023-05-04T06:43:34.645Z,6.07
2023-05-04T06:46:05.172Z,8.00
2023-05-04T06:48:32.486Z,7.23
2023-05-04T06:51:01.488Z,10.33
2023-05-04T06:53:30.116Z,6.23
2023-05-04T06:55:57.608Z,8.57
2023-05-04T06:58:25.900Z,6.03
2023-05-04T07:00:53.305Z,6.63
2023-05-04T07:03:20.630Z,6.33
2023-05-04T07:05:49.068Z,6.93
2023-05-04T07:08:17.619Z,9.33
2023-05-04T07:10:44.958Z,7.33
2023-05-04T07:13:12.641Z,6.67
2023-05-04T07:15:40.293Z,6.50
2023-05-04T07:18:07.691Z,10.17
2023-05-04T07:20:35.106Z,6.47
2023-05-04T07:23:02.649Z,5.87
2023-05-04T07:25:30.478Z,5.97
2023-05-04T07:27:58.448Z,5.70
2023-05-04T07:30:26.455Z,6.27
2023-05-04T07:32:54.098Z,6.17
2023-05-04T07:35:21.617Z,5.53
2023-05-04T07:37:49.788Z,6.77
2023-05-04T07:40:17.180Z,6.70
2023-05-04T07:42:44.502Z,6.03
2023-05-04T07:45:11.846Z,5.07
2023-05-04T07:47:39.291Z,5.37
2023-05-04T07:50:07.428Z,4.60
2023-05-04T07:52:35.013Z,4.70
2023-05-04T07:55:02.465Z,8.47
2023-05-04T07:57:29.945Z,4.20
2023-05-04T07:59:57.376Z,10.33
2023-05-04T08:02:24.841Z,5.53
2023-05-04T08:04:52.346Z,4.50
2023-05-04T08:07:20.864Z,4.20
2023-05-04T08:09:48.731Z,4.50
2023-05-04T08:12:16.071Z,4.07
2023-05-04T08:14:46.654Z,4.27
2023-05-04T08:17:13.941Z,4.87
2023-05-04T08:19:41.404Z,4.73
2023-05-04T08:22:09.274Z,4.27
2023-05-04T08:24:36.562Z,3.87
2023-05-04T08:27:08.813Z,4.00
2023-05-04T08:29:37.581Z,4.30
2023-05-04T08:32:05.947Z,7.10
2023-05-04T08:34:33.494Z,5.80
2023-05-04T08:37:02.462Z,5.83
2023-05-04T08:39:30.550Z,5.37
2023-05-04T08:41:57.805Z,4.30
2023-05-04T08:44:25.166Z,3.20
2023-05-04T08:46:53.628Z,4.50
2023-05-04T08:49:22.676Z,3.30
2023-05-04T08:51:50.919Z,4.00
2023-05-04T08:54:18.936Z,4.27
2023-05-04T08:56:47.625Z,4.33
2023-05-04T08:59:21.238Z,6.00
2023-05-04T09:01:54.606Z,4.50
2023-05-04T09:04:23.450Z,6.77
2023-05-04T09:06:51.997Z,4.53
2023-05-04T09:09:20.723Z,5.20
2023-05-04T09:11:48.194Z,4.43
2023-05-04T09:14:16.112Z,8.40
2023-05-04T09:16:43.550Z,5.20
2023-05-04T09:19:18.618Z,6.03
2023-05-04T09:21:47.142Z,5.37
2023-05-04T09:24:14.528Z,5.37
2023-05-04T09:26:41.994Z,5.37
2023-05-04T09:29:13.905Z,5.40
2023-05-04T09:31:49.738Z,4.50
2023-05-04T09:34:20.405Z,7.97
2023-05-04T09:37:02.002Z,4.70
2023-05-04T09:39:30.345Z,5.10
2023-05-04T09:41:57.687Z,4.33
2023-05-04T09:44:29.628Z,5.17
2023-05-04T09:46:59.261Z,4.67
2023-05-04T09:49:31.903Z,5.80
2023-05-04T09:52:03.404Z,4.40
2023-05-04T09:54:41.318Z,4.20
2023-05-04T09:57:15.782Z,5.87
2023-05-04T09:59:43.426Z,5.73
2023-05-04T10:02:22.022Z,3.90
2023-05-04T10:04:51.666Z,5.03
2023-05-04T10:07:20.889Z,5.57
2023-05-04T10:09:51.192Z,6.13
2023-05-04T10:12:18.954Z,4.37
2023-05-04T10:14:47.360Z,4.43
2023-05-04T10:17:45.965Z,4.77
2023-05-04T10:20:16.576Z,3.43
2023-05-04T10:23:02.740Z,3.53
2023-05-04T10:25:58.058Z,2.80
2023-05-04T10:28:43.293Z,3.87
2023-05-04T10:31:10.971Z,2.87
2023-05-04T10:33:39.953Z,3.70
2023-05-04T10:36:08.864Z,3.40
2023-05-04T10:38:37.414Z,5.53
2023-05-04T10:41:22.211Z,4.40
2023-05-04T10:43:53.257Z,4.30
2023-05-04T10:46:24.235Z,3.47
2023-05-04T10:48:51.853Z,4.43
2023-05-04T10:51:20.248Z,3.73
2023-05-04T10:53:48.043Z,4.03
2023-05-04T10:56:25.488Z,2.97
2023-05-04T10:58:54.238Z,3.93
2023-05-04T11:01:22.291Z,4.50
2023-05-04T11:03:50.521Z,4.63
2023-05-04T11:06:24.466Z,3.70
2023-05-04T11:09:02.654Z,4.93
2023-05-04T11:11:30.338Z,4.60
2023-05-04T11:13:57.731Z,5.20
2023-05-04T11:16:26.664Z,4.97
2023-05-04T11:18:54.945Z,8.00
2023-05-04T11:21:26.160Z,5.40
2023-05-04T11:24:00.402Z,4.73
2023-05-04T11:26:28.787Z,4.40
2023-05-04T11:28:56.436Z,4.57
2023-05-04T11:31:23.753Z,4.57
2023-05-04T11:33:53.013Z,4.97
2023-05-04T11:36:21.364Z,4.40
2023-05-04T11:38:49.807Z,4.33
2023-05-04T11:41:17.483Z,5.00
2023-05-04T11:43:47.940Z,4.30
2023-05-04T11:46:16.800Z,5.43
2023-05-04T11:48:44.353Z,4.23
2023-05-04T11:51:11.654Z,4.30
2023-05-04T11:53:40.602Z,5.07
2023-05-04T11:56:09.823Z,4.50
2023-05-04T11:58:37.679Z,3.67
2023-05-04T12:01:05.528Z,4.37
2023-05-04T12:06:05.686Z,3.77
2023-05-04T12:08:35.590Z,3.17
2023-05-04T12:11:16.883Z,3.70
2023-05-04T12:13:45.609Z,4.63
2023-05-04T12:16:18.904Z,4.40
2023-05-04T12:18:47.437Z,4.47
2023-05-04T12:21:18.474Z,6.23
2023-05-04T12:23:46.930Z,4.40
2023-05-04T12:26:18.122Z,3.57
2023-05-04T12:28:47.517Z,5.83
2023-05-04T12:31:15.101Z,6.57
2023-05-04T12:33:42.507Z,3.50
2023-05-04T12:36:10.308Z,4.50
2023-05-04T12:38:38.046Z,3.93
2023-05-04T12:41:07.427Z,4.20
2023-05-04T12:43:35.190Z,4.87
2023-05-04T12:46:03.093Z,5.20
2023-05-04T12:48:32.843Z,5.83
2023-05-04T12:51:01.339Z,4.20
2023-05-04T12:53:31.640Z,4.77
2023-05-04T12:56:00.221Z,3.90
2023-05-04T12:58:28.166Z,4.40
2023-05-04T13:00:56.711Z,4.10
2023-05-04T13:03:24.667Z,3.90
2023-05-04T13:05:52.919Z,3.33
2023-05-04T13:08:20.239Z,6.80
2023-05-04T13:10:48.310Z,8.20
2023-05-04T13:13:17.805Z,3.67
2023-05-04T13:15:45.484Z,3.80
2023-05-04T13:18:13.092Z,3.10
2023-05-04T13:20:40.937Z,3.97
2023-05-04T13:23:08.306Z,5.07
2023-05-04T13:25:35.640Z,5.50
2023-05-04T13:28:03.462Z,3.60
2023-05-04T13:30:31.137Z,3.60
2023-05-04T13:32:58.600Z,4.23
2023-05-04T13:35:26.011Z,4.13
2023-05-04T13:37:53.408Z,4.50
2023-05-04T13:40:20.872Z,3.13
2023-05-04T13:42:48.253Z,3.00
2023-05-04T13:45:15.867Z,4.23
2023-05-04T13:47:44.008Z,7.57
2023-05-04T13:50:11.494Z,3.83
2023-05-04T13:52:38.789Z,4.43
2023-05-04T13:55:06.674Z,3.47
2023-05-04T13:57:34.125Z,4.40
2023-05-04T14:00:10.237Z,3.40
2023-05-04T14:02:40.964Z,5.23
2023-05-04T14:05:09.026Z,6.53
2023-05-04T14:07:36.661Z,3.10
2023-05-04T14:10:04.635Z,2.80
2023-05-04T14:12:31.956Z,4.17
2023-05-04T14:14:59.593Z,3.40
2023-05-04T14:17:27.300Z,5.90
2023-05-04T14:19:54.622Z,3.47
2023-05-04T14:22:22.216Z,6.30
2023-05-04T14:24:50.768Z,3.20
2023-05-04T14:27:18.015Z,4.67
2023-05-04T14:29:47.181Z,3.97
2023-05-04T14:32:15.661Z,5.23
2023-05-04T14:34:43.026Z,5.60
2023-05-04T14:37:10.327Z,3.40
2023-05-04T14:39:39.370Z,3.27
2023-05-04T14:42:06.812Z,3.60
2023-05-04T14:44:34.234Z,4.23
2023-05-04T14:47:06.087Z,3.67
2023-05-04T14:49:37.253Z,5.53
2023-05-04T14:52:05.626Z,7.73
2023-05-04T14:54:33.169Z,4.93
2023-05-04T14:57:00.471Z,3.30
2023-05-04T14:59:27.813Z,8.30
2023-05-04T15:01:57.270Z,11.43
2023-05-04T15:04:24.990Z,4.87
2023-05-04T15:06:52.639Z,3.17
2023-05-04T15:09:19.891Z,13.37
2023-05-04T15:11:48.647Z,7.63
2023-05-04T15:14:17.313Z,4.40
2023-05-04T15:16:48.890Z,5.23
2023-05-04T15:19:19.873Z,4.70
2023-05-04T15:21:47.728Z,3.03
2023-05-04T15:24:25.152Z,3.90
2023-05-04T15:26:53.288Z,2.67
2023-05-04T15:29:20.687Z,2.90
2023-05-04T15:31:48.486Z,2.73
2023-05-04T15:34:18.350Z,3.90
2023-05-04T15:36:46.353Z,3.90
2023-05-04T15:39:13.646Z,2.50
2023-05-04T15:41:43.032Z,4.07
2023-05-04T15:44:11.179Z,3.67
2023-05-04T15:46:38.512Z,4.10
2023-05-04T15:49:05.998Z,3.73
2023-05-04T15:51:33.502Z,2.40
2023-05-04T15:54:01.093Z,2.50
2023-05-04T15:56:28.655Z,3.27
2023-05-04T15:58:56.154Z,5.07
2023-05-04T16:01:24.449Z,2.73
2023-05-04T16:03:55.439Z,3.10
2023-05-04T16:06:23.694Z,5.10
2023-05-04T16:08:52.351Z,7.73
2023-05-04T16:11:19.850Z,3.20
2023-05-04T16:13:47.260Z,3.73
2023-05-04T16:16:14.650Z,3.20
2023-05-04T16:18:42.364Z,2.53
2023-05-04T16:21:10.301Z,3.57
2023-05-04T16:23:37.640Z,2.50
2023-05-04T16:26:05.160Z,4.27
2023-05-04T16:28:33.038Z,2.70
2023-05-04T16:31:00.399Z,4.00
2023-05-04T16:33:27.944Z,4.17
2023-05-04T16:35:55.507Z,3.00
2023-05-04T16:38:22.980Z,3.43
2023-05-04T16:40:50.498Z,2.73
2023-05-04T16:43:17.790Z,5.00
2023-05-04T16:45:45.432Z,2.63
2023-05-04T16:48:12.772Z,3.03
2023-05-04T16:50:40.035Z,2.80
2023-05-04T16:53:07.580Z,3.27
2023-05-04T16:55:36.321Z,3.20
2023-05-04T16:58:03.797Z,5.50
2023-05-04T17:00:31.781Z,6.90
2023-05-04T17:02:59.146Z,2.87
2023-05-04T17:05:26.637Z,2.93
2023-05-04T17:07:54.272Z,4.03
2023-05-04T17:10:21.828Z,2.50
2023-05-04T17:12:53.410Z,4.03
2023-05-04T17:15:22.043Z,3.43
2023-05-04T17:17:52.633Z,3.47
2023-05-04T17:20:21.664Z,6.47
2023-05-04T17:22:51.433Z,9.43
2023-05-04T17:25:19.018Z,2.60
2023-05-04T17:27:47.292Z,2.67
2023-05-04T17:30:14.930Z,4.20
2023-05-04T17:32:42.340Z,2.43
2023-05-04T17:35:20.832Z,3.67
2023-05-04T17:37:56.803Z,4.07
2023-05-04T17:40:27.048Z,4.77
2023-05-04T17:42:54.633Z,2.63
2023-05-04T17:45:21.968Z,3.83
2023-05-04T17:47:51.173Z,2.93
2023-05-04T17:50:18.672Z,3.43
2023-05-04T17:52:51.595Z,4.43
2023-05-04T17:55:18.904Z,2.60
2023-05-04T17:57:46.294Z,3.40
2023-05-04T18:00:14.098Z,3.00
2023-05-04T18:02:41.763Z,4.03
2023-05-04T18:05:09.495Z,3.17
2023-05-04T18:07:37.463Z,5.53
2023-05-04T18:10:05.335Z,2.80
2023-05-04T18:12:33.050Z,6.20
2023-05-04T18:15:01.713Z,10.73
2023-05-04T18:17:29.436Z,26.13
2023-05-04T18:19:57.143Z,20.10
2023-05-04T18:22:28.565Z,19.00
2023-05-04T18:24:55.894Z,15.73
2023-05-04T18:27:23.172Z,13.93
2023-05-04T18:29:52.473Z,11.37
2023-05-04T18:32:19.747Z,14.77
2023-05-04T18:34:54.165Z,10.43
2023-05-04T18:37:21.735Z,11.27
2023-05-04T18:39:48.989Z,5.80
2023-05-04T18:42:16.507Z,9.83
2023-05-04T18:44:43.942Z,13.97
2023-05-04T18:47:11.695Z,12.23
2023-05-04T18:49:38.929Z,9.97
2023-05-04T18:52:06.372Z,6.97
2023-05-04T18:54:33.719Z,14.40
2023-05-04T18:57:01.135Z,11.47
2023-05-04T18:59:28.392Z,9.53
2023-05-04T19:01:56.373Z,7.10
2023-05-04T19:04:23.687Z,9.40
2023-05-04T19:06:53.483Z,9.87
2023-05-04T19:09:20.864Z,7.80
2023-05-04T19:11:48.193Z,8.60
2023-05-04T19:14:15.668Z,10.77
2023-05-04T19:16:45.294Z,9.00
2023-05-04T19:19:12.669Z,9.60
2023-05-04T19:21:40.361Z,8.43
2023-05-04T19:24:07.756Z,9.33
2023-05-04T19:26:35.050Z,7.50
2023-05-04T19:29:02.387Z,7.57
2023-05-04T19:31:30.093Z,12.63
2023-05-04T19:33:57.413Z,9.90
2023-05-04T19:36:24.724Z,10.27
2023-05-04T19:38:52.563Z,9.03
2023-05-04T19:41:20.321Z,6.73
2023-05-04T19:43:47.723Z,7.27
2023-05-04T19:46:16.352Z,11.13
2023-05-04T19:48:43.707Z,8.73
2023-05-04T19:51:11.054Z,10.43
2023-05-04T19:53:38.372Z,10.63
2023-05-04T19:56:05.749Z,7.70
2023-05-04T19:58:33.080Z,10.23
2023-05-04T20:01:00.436Z,5.30
2023-05-04T20:03:28.218Z,6.57
2023-05-04T20:05:55.771Z,8.13
2023-05-04T20:08:23.057Z,12.80
2023-05-04T20:10:50.362Z,7.53
2023-05-04T20:13:17.767Z,8.03
2023-05-04T20:15:52.201Z,9.90
2023-05-04T20:18:20.297Z,9.73
2023-05-04T20:20:47.553Z,6.20
2023-05-04T20:23:14.998Z,7.90
2023-05-04T20:25:42.886Z,8.20
2023-05-04T20:28:10.261Z,8.53
2023-05-04T20:30:37.627Z,7.53
2023-05-04T20:33:05.135Z,6.13
2023-05-04T20:35:32.472Z,5.30
2023-05-04T20:37:59.793Z,6.93
2023-05-04T20:40:27.092Z,5.40
2023-05-04T20:42:54.350Z,5.13
2023-05-04T20:45:21.725Z,4.63
2023-05-04T20:47:49.465Z,4.30
2023-05-04T20:50:18.391Z,3.90
2023-05-04T20:52:45.809Z,4.77
2023-05-04T20:55:13.365Z,4.03
2023-05-04T20:57:41.152Z,4.50
2023-05-04T21:00:09.569Z,5.53
2023-05-04T21:02:37.130Z,3.87
2023-05-04T21:05:04.947Z,4.03
2023-05-04T21:07:32.201Z,4.30
2023-05-04T21:09:59.711Z,7.73
2023-05-04T21:12:27.108Z,4.90
2023-05-04T21:14:54.630Z,5.70
2023-05-04T21:17:22.031Z,4.47
2023-05-04T21:19:49.465Z,4.90
2023-05-04T21:22:17.691Z,4.93
2023-05-04T21:24:46.713Z,4.67
2023-05-04T21:27:14.130Z,6.83
2023-05-04T21:29:41.509Z,5.37
2023-05-04T21:32:08.896Z,5.90
2023-05-04T21:34:36.400Z,5.67
2023-05-04T21:37:03.872Z,4.60
2023-05-04T21:39:31.693Z,5.77
2023-05-04T21:41:58.989Z,6.17
2023-05-04T21:44:26.334Z,4.00
2023-05-04T21:46:53.723Z,4.17
2023-05-04T21:49:20.998Z,3.63
2023-05-04T21:51:48.257Z,5.50
2023-05-04T21:54:15.516Z,5.47
2023-05-04T21:56:42.751Z,4.63
2023-05-04T21:59:10.071Z,3.67
2023-05-04T22:01:37.907Z,6.23
2023-05-04T22:04:08.582Z,4.93
2023-05-04T22:06:36.860Z,2.83
2023-05-04T22:09:05.484Z,5.23
2023-05-04T22:11:32.732Z,5.07
2023-05-04T22:14:00.000Z,4.10
2023-05-04T22:16:27.404Z,4.77
2023-05-04T22:18:55.017Z,4.33
2023-05-04T22:21:22.290Z,4.60
2023-05-04T22:23:49.564Z,4.63
2023-05-04T22:26:16.904Z,4.17
2023-05-04T22:28:44.191Z,4.13
2023-05-04T22:31:11.691Z,5.43
2023-05-04T22:33:39.124Z,5.50
2023-05-04T22:36:06.823Z,5.00
2023-05-04T22:38:34.233Z,6.27
2023-05-04T22:41:01.645Z,5.10
2023-05-04T22:43:28.887Z,4.77
2023-05-04T22:45:56.418Z,4.70
2023-05-04T22:48:24.072Z,5.90
2023-05-04T22:50:51.377Z,6.30
2023-05-04T22:53:18.672Z,4.80
2023-05-04T22:55:45.951Z,7.33
2023-05-04T22:58:13.576Z,6.53
2023-05-04T23:00:40.878Z,5.20
2023-05-04T23:03:08.766Z,8.37
2023-05-04T23:05:36.508Z,4.77
2023-05-04T23:08:03.985Z,6.87
2023-05-04T23:10:31.274Z,6.03
2023-05-04T23:12:59.000Z,8.67
2023-05-04T23:15:26.362Z,6.93
2023-05-04T23:17:53.717Z,7.87
2023-05-04T23:20:21.706Z,5.90
2023-05-04T23:22:49.115Z,6.40
2023-05-04T23:25:16.355Z,5.33
2023-05-04T23:27:44.815Z,8.53
2023-05-04T23:30:12.665Z,5.63
2023-05-04T23:32:40.065Z,7.80
2023-05-04T23:35:08.792Z,4.50
2023-05-04T23:37:36.305Z,7.67
2023-05-04T23:40:03.896Z,15.00
2023-05-04T23:42:31.343Z,5.67
2023-05-04T23:44:58.741Z,4.90
2023-05-04T23:47:26.408Z,6.10
2023-05-04T23:49:53.991Z,5.00
2023-05-04T23:52:21.379Z,4.60
2023-05-04T23:54:53.848Z,4.93
2023-05-04T23:57:21.434Z,5.57
2023-05-04T23:59:48.681Z,4.70
